createdAt,value
2023-02-27T00:03:34.256Z,1.90
2023-02-27T00:10:17.414Z,1.60
2023-02-27T00:17:00.422Z,1.70
2023-02-27T00:23:42.720Z,1.63
2023-02-27T00:30:26.453Z,1.48
2023-02-27T00:37:08.798Z,1.77
2023-02-27T00:43:51.104Z,1.80
2023-02-27T00:50:33.996Z,2.08
2023-02-27T00:57:16.835Z,1.98
2023-02-27T01:03:59.181Z,2.00
2023-02-27T01:10:41.513Z,1.92
2023-02-27T01:17:23.985Z,1.80
2023-02-27T01:24:06.396Z,1.80
2023-02-27T01:30:49.176Z,1.85
2023-02-27T01:37:31.665Z,1.50
2023-02-27T01:44:15.289Z,1.75
2023-02-27T01:51:11.697Z,2.13
2023-02-27T01:57:54.760Z,1.70
2023-02-27T02:04:40.507Z,2.10
2023-02-27T02:11:23.957Z,1.90
2023-02-27T02:18:53.784Z,1.98
2023-02-27T02:25:56.336Z,2.05
2023-02-27T02:33:10.666Z,2.00
2023-02-27T02:40:24.882Z,2.22
2023-02-27T02:47:46.593Z,1.90
2023-02-27T02:54:33.696Z,1.88
2023-02-27T03:01:40.217Z,1.70
2023-02-27T03:08:28.485Z,2.35
2023-02-27T03:15:23.086Z,2.47
2023-02-27T03:22:09.779Z,2.20
2023-02-27T03:29:02.133Z,2.20
2023-02-27T03:36:04.151Z,2.30
2023-02-27T03:43:11.577Z,3.22
2023-02-27T03:50:04.386Z,1.90
2023-02-27T03:56:52.759Z,2.15
2023-02-27T04:03:41.393Z,2.50
2023-02-27T04:10:43.252Z,2.70
2023-02-27T04:17:32.013Z,2.60
2023-02-27T04:24:49.301Z,2.65
2023-02-27T04:31:45.896Z,2.72
2023-02-27T04:38:57.235Z,2.63
2023-02-27T04:45:41.459Z,2.47
2023-02-27T04:52:37.858Z,3.10
2023-02-27T04:59:28.321Z,2.60
2023-02-27T05:06:12.334Z,2.90
2023-02-27T05:13:07.075Z,3.10
2023-02-27T05:19:49.812Z,2.95
2023-02-27T05:26:38.173Z,2.72
2023-02-27T05:33:31.065Z,3.47
2023-02-27T05:40:19.266Z,3.03
2023-02-27T05:47:10.499Z,3.47
2023-02-27T05:54:10.067Z,3.67
2023-02-27T06:00:59.902Z,3.05
2023-02-27T06:07:42.442Z,3.08
2023-02-27T06:14:24.828Z,3.22
2023-02-27T06:21:07.169Z,3.00
2023-02-27T06:27:49.705Z,4.13
2023-02-27T06:34:31.992Z,2.92
2023-02-27T06:41:14.354Z,3.13
2023-02-27T06:47:56.718Z,3.63
2023-02-27T06:54:39.090Z,3.40
2023-02-27T07:01:21.497Z,3.30
2023-02-27T07:08:04.028Z,3.03
2023-02-27T07:14:46.369Z,3.10
2023-02-27T07:21:28.729Z,2.78
2023-02-27T07:28:11.092Z,2.95
2023-02-27T07:34:53.534Z,3.13
2023-02-27T07:41:36.102Z,2.70
2023-02-27T07:48:20.603Z,3.85
2023-02-27T07:55:02.938Z,2.47
2023-02-27T08:01:45.334Z,3.00
2023-02-27T08:08:28.441Z,2.92
2023-02-27T08:15:11.094Z,2.47
2023-02-27T08:21:53.380Z,2.75
2023-02-27T08:28:35.700Z,2.88
2023-02-27T08:35:18.086Z,2.55
2023-02-27T08:42:00.463Z,2.80
2023-02-27T08:48:42.825Z,2.88
2023-02-27T08:55:25.257Z,2.40
2023-02-27T09:02:07.698Z,2.42
2023-02-27T09:08:50.035Z,2.35
2023-02-27T09:15:34.390Z,2.97
2023-02-27T09:22:17.239Z,2.90
2023-02-27T09:28:59.585Z,2.83
2023-02-27T09:35:42.274Z,2.20
2023-02-27T09:42:33.309Z,2.65
2023-02-27T09:49:19.390Z,2.20
2023-02-27T09:56:32.565Z,2.05
2023-02-27T10:03:27.755Z,2.53
2023-02-27T10:10:20.928Z,2.05
2023-02-27T10:17:07.929Z,2.30
2023-02-27T10:24:23.764Z,2.33
2023-02-27T10:31:24.832Z,2.35
2023-02-27T10:38:17.880Z,2.30
2023-02-27T10:45:00.583Z,2.85
2023-02-27T10:51:44.426Z,2.20
2023-02-27T10:58:34.694Z,1.80
2023-02-27T11:05:32.226Z,1.70
2023-02-27T11:12:17.669Z,1.75
2023-02-27T11:19:00.464Z,1.60
2023-02-27T11:25:43.625Z,1.73
2023-02-27T11:32:37.136Z,2.00
2023-02-27T11:39:24.665Z,1.70
2023-02-27T11:46:39.148Z,1.60
2023-02-27T11:53:31.270Z,1.40
2023-02-27T12:00:23.584Z,1.58
2023-02-27T12:07:32.384Z,1.60
2023-02-27T12:14:24.967Z,1.77
2023-02-27T12:21:13.280Z,2.08
2023-02-27T12:28:08.758Z,1.90
2023-02-27T12:34:54.017Z,2.00
2023-02-27T12:42:03.543Z,2.00
2023-02-27T12:49:15.428Z,1.58
2023-02-27T12:56:04.116Z,1.90
2023-02-27T13:03:09.917Z,2.10
2023-02-27T13:09:55.310Z,2.55
2023-02-27T13:16:43.260Z,1.75
2023-02-27T13:23:43.217Z,2.13
2023-02-27T13:30:30.574Z,2.05
2023-02-27T13:37:13.257Z,2.20
2023-02-27T13:43:56.979Z,2.28
2023-02-27T13:50:50.208Z,2.38
2023-02-27T13:57:35.386Z,2.00
2023-02-27T14:04:19.828Z,1.60
2023-02-27T14:11:27.807Z,2.17
2023-02-27T14:18:48.153Z,2.05
2023-02-27T14:25:44.743Z,1.80
2023-02-27T14:32:33.111Z,1.90
2023-02-27T14:39:23.259Z,2.08
2023-02-27T14:46:24.225Z,1.50
2023-02-27T14:53:07.646Z,1.60
2023-02-27T14:59:52.089Z,1.85
2023-02-27T15:06:44.256Z,2.05
2023-02-27T15:13:33.570Z,1.70
2023-02-27T15:20:36.298Z,1.88
2023-02-27T15:27:22.620Z,2.00
2023-02-27T15:34:10.836Z,2.25
2023-02-27T15:40:53.545Z,1.40
2023-02-27T15:47:38.041Z,1.80
2023-02-27T15:54:22.791Z,1.42
2023-02-27T16:01:14.831Z,1.50
2023-02-27T16:07:57.191Z,1.75
2023-02-27T16:14:44.943Z,1.90
2023-02-27T16:21:31.209Z,1.75
2023-02-27T16:28:15.075Z,1.80
2023-02-27T16:35:14.623Z,1.80
2023-02-27T16:41:59.041Z,1.40
2023-02-27T16:48:41.828Z,1.23
2023-02-27T16:55:25.003Z,1.70
2023-02-27T17:02:13.179Z,1.70
2023-02-27T17:08:56.034Z,1.85
2023-02-27T17:15:38.418Z,1.73
2023-02-27T17:22:20.836Z,1.77
2023-02-27T17:29:03.677Z,1.55
2023-02-27T17:35:45.995Z,2.00
2023-02-27T17:42:28.305Z,2.08
2023-02-27T17:49:10.664Z,1.50
2023-02-27T17:55:52.949Z,1.70
2023-02-27T18:02:36.523Z,1.77
2023-02-27T18:09:18.992Z,2.03
2023-02-27T18:16:01.410Z,2.08
2023-02-27T18:22:43.829Z,1.60
2023-02-27T18:29:26.136Z,1.95
2023-02-27T18:36:08.860Z,2.00
2023-02-27T18:42:55.231Z,1.65
2023-02-27T18:49:38.121Z,2.05
2023-02-27T18:56:23.016Z,2.05
2023-02-27T19:03:05.917Z,1.88
2023-02-27T19:09:48.594Z,2.10
2023-02-27T19:16:31.715Z,1.83
2023-02-27T19:23:14.584Z,1.95
2023-02-27T19:29:56.824Z,1.92
2023-02-27T19:36:40.150Z,2.58
2023-02-27T19:43:22.882Z,1.90
2023-02-27T19:50:05.742Z,2.25
2023-02-27T19:56:48.009Z,2.25
2023-02-27T20:03:30.501Z,2.28
2023-02-27T20:10:13.115Z,2.50
2023-02-27T20:16:55.621Z,2.28
2023-02-27T20:23:40.129Z,2.53
2023-02-27T20:30:22.797Z,2.40
2023-02-27T20:37:05.108Z,2.47
2023-02-27T20:43:49.660Z,2.30
2023-02-27T20:50:31.968Z,2.97
2023-02-27T20:57:14.275Z,2.30
2023-02-27T21:03:58.220Z,3.00
2023-02-27T21:10:40.732Z,3.00
2023-02-27T21:17:24.851Z,2.70
2023-02-27T21:24:07.385Z,2.90
2023-02-27T21:30:54.346Z,2.50
2023-02-27T21:37:36.856Z,2.63
2023-02-27T21:44:21.121Z,3.03
2023-02-27T21:51:04.245Z,2.97
2023-02-27T21:57:46.523Z,2.67
2023-02-27T22:04:28.802Z,2.90
2023-02-27T22:11:11.335Z,2.53
2023-02-27T22:17:54.664Z,2.70
2023-02-27T22:24:36.956Z,3.22
2023-02-27T22:31:22.135Z,3.10
2023-02-27T22:38:04.456Z,2.83
2023-02-27T22:44:46.798Z,3.10
2023-02-27T22:51:30.105Z,2.70
2023-02-27T22:58:12.603Z,2.88
2023-02-27T23:04:55.280Z,2.67
2023-02-27T23:11:38.081Z,2.33
2023-02-27T23:18:20.928Z,2.58
2023-02-27T23:25:07.111Z,2.65
2023-02-27T23:31:49.497Z,2.50
2023-02-27T23:38:31.971Z,2.35
2023-02-27T23:45:23.164Z,2.53
2023-02-27T23:52:05.411Z,2.80
2023-02-27T23:58:52.393Z,2.42
